createdAt,value
2022-10-21T00:02:15.204Z,3.53
2022-10-21T00:04:42.928Z,3.20
2022-10-21T00:07:12.058Z,3.57
2022-10-21T00:09:39.942Z,3.40
2022-10-21T00:12:07.582Z,3.33
2022-10-21T00:14:35.315Z,3.40
2022-10-21T00:17:03.015Z,3.63
2022-10-21T00:19:30.678Z,3.90
2022-10-21T00:21:58.416Z,3.73
2022-10-21T00:24:27.468Z,3.77
2022-10-21T00:26:56.210Z,3.80
2022-10-21T00:29:24.036Z,3.10
2022-10-21T00:31:54.159Z,3.80
2022-10-21T00:34:22.820Z,3.33
2022-10-21T00:36:52.510Z,3.20
2022-10-21T00:39:20.256Z,3.03
2022-10-21T00:41:49.286Z,3.63
2022-10-21T00:44:16.984Z,3.60
2022-10-21T00:46:48.266Z,4.13
2022-10-21T00:49:22.169Z,3.40
2022-10-21T00:51:54.462Z,3.77
2022-10-21T00:54:24.534Z,3.67
2022-10-21T00:56:55.770Z,3.50
2022-10-21T00:59:26.093Z,3.57
2022-10-21T01:01:53.920Z,3.50
2022-10-21T01:04:22.274Z,3.27
2022-10-21T01:06:50.991Z,3.27
2022-10-21T01:09:21.015Z,3.63
2022-10-21T01:11:50.325Z,3.50
2022-10-21T01:14:37.678Z,3.03
2022-10-21T01:17:20.539Z,3.10
2022-10-21T01:20:24.713Z,3.23
2022-10-21T01:23:08.104Z,3.27
2022-10-21T01:25:50.059Z,3.57
2022-10-21T01:28:30.129Z,3.60
2022-10-21T01:31:02.188Z,3.00
2022-10-21T01:33:40.307Z,3.20
2022-10-21T01:36:18.576Z,3.37
2022-10-21T01:38:55.655Z,3.10
2022-10-21T01:41:29.934Z,3.47
2022-10-21T01:44:05.205Z,3.60
2022-10-21T01:46:40.179Z,3.07
2022-10-21T01:49:12.642Z,3.33
2022-10-21T01:51:41.095Z,3.40
2022-10-21T01:54:13.977Z,3.90
2022-10-21T01:56:45.020Z,3.53
2022-10-21T01:59:15.353Z,3.97
2022-10-21T02:01:47.544Z,3.20
2022-10-21T02:04:19.005Z,3.63
2022-10-21T02:06:46.880Z,4.00
2022-10-21T02:09:14.701Z,4.23
2022-10-21T02:11:45.908Z,3.60
2022-10-21T02:14:18.354Z,3.37
2022-10-21T02:16:48.824Z,3.17
2022-10-21T02:19:18.865Z,3.70
2022-10-21T02:21:48.941Z,3.90
2022-10-21T02:24:22.797Z,3.70
2022-10-21T02:26:50.658Z,3.80
2022-10-21T02:29:23.340Z,4.13
2022-10-21T02:32:05.268Z,3.60
2022-10-21T02:34:44.545Z,3.30
2022-10-21T02:37:22.878Z,3.53
2022-10-21T02:39:57.173Z,3.10
2022-10-21T02:42:29.683Z,2.97
2022-10-21T02:44:57.442Z,3.30
2022-10-21T02:47:27.282Z,3.37
2022-10-21T02:49:55.067Z,3.07
2022-10-21T02:52:22.926Z,3.13
2022-10-21T02:54:50.568Z,3.13
2022-10-21T02:57:18.202Z,2.83
2022-10-21T02:59:45.933Z,3.13
2022-10-21T03:02:13.739Z,2.90
2022-10-21T03:04:42.807Z,3.20
2022-10-21T03:07:10.533Z,3.07
2022-10-21T03:09:38.266Z,2.90
2022-10-21T03:12:05.999Z,2.83
2022-10-21T03:14:33.671Z,3.00
2022-10-21T03:17:01.354Z,2.97
2022-10-21T03:19:29.955Z,2.80
2022-10-21T03:21:59.044Z,2.67
2022-10-21T03:24:28.692Z,2.60
2022-10-21T03:26:57.090Z,2.53
2022-10-21T03:29:24.907Z,2.73
2022-10-21T03:31:52.985Z,2.83
2022-10-21T03:34:20.678Z,2.60
2022-10-21T03:36:48.433Z,2.63
2022-10-21T03:39:17.474Z,2.40
2022-10-21T03:41:45.185Z,2.50
2022-10-21T03:44:12.919Z,2.67
2022-10-21T03:46:40.592Z,2.30
2022-10-21T03:49:15.503Z,2.50
2022-10-21T03:51:47.715Z,2.50
2022-10-21T03:54:17.010Z,2.93
2022-10-21T03:56:44.764Z,3.10
2022-10-21T03:59:12.502Z,2.80
2022-10-21T04:01:40.230Z,2.40
2022-10-21T04:04:08.169Z,3.10
2022-10-21T04:06:35.896Z,2.77
2022-10-21T04:09:04.189Z,2.60
2022-10-21T04:11:33.259Z,3.10
2022-10-21T04:14:00.972Z,3.10
2022-10-21T04:16:28.768Z,3.00
2022-10-21T04:18:56.576Z,2.80
2022-10-21T04:21:24.304Z,3.37
2022-10-21T04:23:52.015Z,2.50
2022-10-21T04:26:19.714Z,2.90
2022-10-21T04:28:48.784Z,3.03
2022-10-21T04:31:16.452Z,2.50
2022-10-21T04:33:44.127Z,3.27
2022-10-21T04:36:11.854Z,3.10
2022-10-21T04:38:39.533Z,3.20
2022-10-21T04:41:07.208Z,3.17
2022-10-21T04:43:34.909Z,3.20
2022-10-21T04:46:06.526Z,2.90
2022-10-21T04:48:36.572Z,3.20
2022-10-21T04:51:04.312Z,3.20
2022-10-21T04:53:31.980Z,2.73
2022-10-21T04:55:59.832Z,2.43
2022-10-21T04:58:27.550Z,2.90
2022-10-21T05:00:55.249Z,2.90
2022-10-21T05:03:24.423Z,2.90
2022-10-21T05:05:53.618Z,2.63
2022-10-21T05:08:22.287Z,3.13
2022-10-21T05:10:50.112Z,2.63
2022-10-21T05:13:17.835Z,2.80
2022-10-21T05:15:45.530Z,2.80
2022-10-21T05:18:13.252Z,2.50
2022-10-21T05:20:42.447Z,2.10
2022-10-21T05:23:10.274Z,2.40
2022-10-21T05:25:38.422Z,2.50
2022-10-21T05:28:06.134Z,2.37
2022-10-21T05:30:33.973Z,2.67
2022-10-21T05:33:01.634Z,2.63
2022-10-21T05:35:29.392Z,2.40
2022-10-21T05:37:58.526Z,2.17
2022-10-21T05:40:26.339Z,2.17
2022-10-21T05:42:54.092Z,2.07
2022-10-21T05:45:22.167Z,1.80
2022-10-21T05:47:49.940Z,2.20
2022-10-21T05:50:17.704Z,2.20
2022-10-21T05:52:45.428Z,2.10
2022-10-21T05:55:14.602Z,2.40
2022-10-21T05:57:42.373Z,2.10
2022-10-21T06:00:11.600Z,2.47
2022-10-21T06:02:39.640Z,2.23
2022-10-21T06:05:08.145Z,2.50
2022-10-21T06:07:36.253Z,2.10
2022-10-21T06:10:04.569Z,2.40
2022-10-21T06:12:33.764Z,2.10
2022-10-21T06:15:01.497Z,2.60
2022-10-21T06:17:29.181Z,2.20
2022-10-21T06:19:56.833Z,2.37
2022-10-21T06:22:24.873Z,2.73
2022-10-21T06:24:52.696Z,2.47
2022-10-21T06:27:20.552Z,2.63
2022-10-21T06:29:50.046Z,2.07
2022-10-21T06:32:17.688Z,2.37
2022-10-21T06:34:45.486Z,2.20
2022-10-21T06:37:13.225Z,2.23
2022-10-21T06:39:40.984Z,2.23
2022-10-21T06:42:08.704Z,1.90
2022-10-21T06:44:36.337Z,2.30
2022-10-21T06:47:05.423Z,2.60
2022-10-21T06:49:33.430Z,2.60
2022-10-21T06:52:01.069Z,1.90
2022-10-21T06:54:28.720Z,2.20
2022-10-21T06:56:56.437Z,2.50
2022-10-21T06:59:24.172Z,2.10
2022-10-21T07:02:00.693Z,2.13
2022-10-21T07:04:30.659Z,2.63
2022-10-21T07:06:58.667Z,2.33
2022-10-21T07:09:26.407Z,2.10
2022-10-21T07:11:54.293Z,2.23
2022-10-21T07:14:21.957Z,2.30
2022-10-21T07:16:51.470Z,2.43
2022-10-21T07:19:19.158Z,2.33
2022-10-21T07:21:48.238Z,2.30
2022-10-21T07:24:18.716Z,2.20
2022-10-21T07:26:49.170Z,2.27
2022-10-21T07:29:16.984Z,2.10
2022-10-21T07:31:44.723Z,2.00
2022-10-21T07:34:13.659Z,1.73
2022-10-21T07:36:44.538Z,1.87
2022-10-21T07:39:16.890Z,1.83
2022-10-21T07:41:49.332Z,1.80
2022-10-21T07:44:18.238Z,1.53
2022-10-21T07:46:46.205Z,1.73
2022-10-21T07:49:15.332Z,1.83
2022-10-21T07:51:45.143Z,1.90
2022-10-21T07:54:14.785Z,2.00
2022-10-21T07:56:45.200Z,1.73
2022-10-21T07:59:14.771Z,2.07
2022-10-21T08:04:22.881Z,2.10
2022-10-21T08:06:51.249Z,1.73
2022-10-21T08:09:20.297Z,1.80
2022-10-21T08:11:48.319Z,2.00
2022-10-21T08:14:16.695Z,1.50
2022-10-21T08:16:44.459Z,1.73
2022-10-21T08:19:25.345Z,1.80
2022-10-21T08:21:53.083Z,1.70
2022-10-21T08:24:23.545Z,1.80
2022-10-21T08:26:52.129Z,1.80
2022-10-21T08:29:19.794Z,1.70
2022-10-21T08:31:47.605Z,1.60
2022-10-21T08:34:15.505Z,1.63
2022-10-21T08:36:43.208Z,1.90
2022-10-21T08:39:10.959Z,1.77
2022-10-21T08:42:02.482Z,1.83
2022-10-21T08:44:40.995Z,1.63
2022-10-21T08:47:19.949Z,1.37
2022-10-21T08:49:57.452Z,1.77
2022-10-21T08:52:31.589Z,1.90
2022-10-21T08:55:02.792Z,1.63
2022-10-21T08:57:34.542Z,1.73
2022-10-21T09:00:03.686Z,1.50
2022-10-21T09:02:49.336Z,1.60
2022-10-21T09:05:34.098Z,1.90
2022-10-21T09:08:20.851Z,1.60
2022-10-21T09:11:00.126Z,1.67
2022-10-21T09:13:58.178Z,1.50
2022-10-21T09:16:37.901Z,1.87
2022-10-21T09:19:19.145Z,1.90
2022-10-21T09:22:16.132Z,1.40
2022-10-21T09:24:53.541Z,2.00
2022-10-21T09:27:32.189Z,1.73
2022-10-21T09:30:10.404Z,2.07
2022-10-21T09:32:41.745Z,1.77
2022-10-21T09:35:18.835Z,1.80
2022-10-21T09:37:52.799Z,2.20
2022-10-21T09:40:23.418Z,1.80
2022-10-21T09:42:55.738Z,1.90
2022-10-21T09:45:32.097Z,2.33
2022-10-21T09:48:05.063Z,1.87
2022-10-21T09:50:34.776Z,1.80
2022-10-21T09:53:09.102Z,1.70
2022-10-21T09:55:40.316Z,2.10
2022-10-21T09:58:08.037Z,2.10
2022-10-21T10:00:47.233Z,1.87
2022-10-21T10:03:30.973Z,2.20
2022-10-21T10:05:58.977Z,1.83
2022-10-21T10:08:35.296Z,2.10
2022-10-21T10:11:06.467Z,1.80
2022-10-21T10:13:34.166Z,1.50
2022-10-21T10:16:26.659Z,2.60
2022-10-21T10:19:10.500Z,1.63
2022-10-21T10:21:38.255Z,2.00
2022-10-21T10:24:06.516Z,1.63
2022-10-21T10:26:38.084Z,1.70
2022-10-21T10:29:11.681Z,1.50
2022-10-21T10:31:46.327Z,1.80
2022-10-21T10:34:22.905Z,1.63
2022-10-21T10:37:00.130Z,2.10
2022-10-21T10:39:31.523Z,1.50
2022-10-21T10:41:59.817Z,1.80
2022-10-21T10:44:32.593Z,1.90
2022-10-21T10:47:03.889Z,1.60
2022-10-21T10:49:38.186Z,1.70
2022-10-21T10:52:15.304Z,2.10
2022-10-21T10:54:43.927Z,2.00
2022-10-21T10:57:16.238Z,1.67
2022-10-21T10:59:48.140Z,1.70
2022-10-21T11:02:33.410Z,2.03
2022-10-21T11:05:23.563Z,1.60
2022-10-21T11:07:53.182Z,1.33
2022-10-21T11:10:32.844Z,1.60
2022-10-21T11:13:01.652Z,1.50
2022-10-21T11:15:52.762Z,1.60
2022-10-21T11:18:28.627Z,1.73
2022-10-21T11:21:06.849Z,1.80
2022-10-21T11:23:49.667Z,1.63
2022-10-21T11:26:27.159Z,1.73
2022-10-21T11:29:08.288Z,1.60
2022-10-21T11:31:59.654Z,1.47
2022-10-21T11:34:41.257Z,1.60
2022-10-21T11:37:19.520Z,1.20
2022-10-21T11:39:59.959Z,1.37
2022-10-21T11:42:34.292Z,1.40
2022-10-21T11:45:18.569Z,1.23
2022-10-21T11:47:56.043Z,1.33
2022-10-21T11:50:35.651Z,1.10
2022-10-21T11:53:17.805Z,1.40
2022-10-21T11:55:54.565Z,1.40
2022-10-21T11:58:40.244Z,1.10
2022-10-21T12:01:24.010Z,1.20
2022-10-21T12:04:15.949Z,1.00
2022-10-21T12:06:52.747Z,1.40
2022-10-21T12:09:28.206Z,1.20
2022-10-21T12:12:00.245Z,1.10
2022-10-21T12:14:33.502Z,1.10
2022-10-21T12:17:06.551Z,1.30
2022-10-21T12:19:34.380Z,1.20
2022-10-21T12:22:03.638Z,1.50
2022-10-21T12:24:45.108Z,1.43
2022-10-21T12:27:20.538Z,1.50
2022-10-21T12:30:00.940Z,1.30
2022-10-21T12:32:32.813Z,1.60
2022-10-21T12:35:02.359Z,1.47
2022-10-21T12:38:07.212Z,1.10
2022-10-21T12:40:40.133Z,1.50
2022-10-21T12:43:19.807Z,1.10
2022-10-21T12:45:48.909Z,1.03
2022-10-21T12:48:33.289Z,1.37
2022-10-21T12:51:03.366Z,1.07
2022-10-21T12:53:40.221Z,1.00
2022-10-21T12:56:11.558Z,0.90
2022-10-21T12:58:42.570Z,1.30
2022-10-21T13:01:35.592Z,1.20
2022-10-21T13:04:03.634Z,0.90
2022-10-21T13:06:53.461Z,1.17
2022-10-21T13:09:40.978Z,1.17
2022-10-21T13:12:19.180Z,1.10
2022-10-21T13:14:48.328Z,1.07
2022-10-21T13:17:28.321Z,1.00
2022-10-21T13:19:57.486Z,1.00
2022-10-21T13:22:35.632Z,1.00
2022-10-21T13:25:18.391Z,1.00
2022-10-21T13:27:52.305Z,1.10
2022-10-21T13:30:32.125Z,0.93
2022-10-21T13:33:02.099Z,0.90
2022-10-21T13:35:36.706Z,0.80
2022-10-21T13:38:18.236Z,0.80
2022-10-21T13:40:49.494Z,0.83
2022-10-21T13:43:28.511Z,0.90
2022-10-21T13:46:05.344Z,0.90
2022-10-21T13:48:39.156Z,1.60
2022-10-21T13:51:15.783Z,1.20
2022-10-21T13:53:45.859Z,0.83
2022-10-21T13:56:21.394Z,0.90
2022-10-21T13:58:51.393Z,1.00
2022-10-21T14:01:21.953Z,0.90
2022-10-21T14:03:50.385Z,0.90
2022-10-21T14:06:26.237Z,0.90
2022-10-21T14:08:55.213Z,0.80
2022-10-21T14:11:27.705Z,1.10
2022-10-21T14:14:00.092Z,1.20
2022-10-21T14:16:33.424Z,1.00
2022-10-21T14:19:03.371Z,0.97
2022-10-21T14:21:37.144Z,1.00
2022-10-21T14:24:05.524Z,1.20
2022-10-21T14:26:34.125Z,0.90
2022-10-21T14:29:04.161Z,1.10
2022-10-21T14:31:31.976Z,1.00
2022-10-21T14:33:59.635Z,1.07
2022-10-21T14:36:28.770Z,0.90
2022-10-21T14:39:00.500Z,0.87
2022-10-21T14:41:33.488Z,1.03
2022-10-21T14:44:13.629Z,0.83
2022-10-21T14:46:46.652Z,1.10
2022-10-21T14:49:33.289Z,0.90
2022-10-21T14:52:03.910Z,1.10
2022-10-21T14:54:41.185Z,0.70
2022-10-21T14:57:26.968Z,0.73
2022-10-21T14:59:57.015Z,1.20
2022-10-21T15:02:29.019Z,1.10
2022-10-21T15:04:58.807Z,1.20
2022-10-21T15:07:30.255Z,1.00
2022-10-21T15:10:00.969Z,1.20
2022-10-21T15:12:39.956Z,0.90
2022-10-21T15:15:41.595Z,0.57
2022-10-21T15:18:15.190Z,0.70
2022-10-21T15:20:57.624Z,1.00
2022-10-21T15:23:28.573Z,0.70
2022-10-21T15:26:00.506Z,0.90
2022-10-21T15:28:32.076Z,0.80
2022-10-21T15:31:00.611Z,1.13
2022-10-21T15:33:31.452Z,0.90
2022-10-21T15:36:04.588Z,0.77
2022-10-21T15:38:32.460Z,0.83
2022-10-21T15:41:00.157Z,0.80
2022-10-21T15:43:28.063Z,1.03
2022-10-21T15:45:55.903Z,0.90
2022-10-21T15:48:24.212Z,1.00
2022-10-21T15:50:55.996Z,1.63
2022-10-21T15:53:23.813Z,1.27
2022-10-21T15:55:51.610Z,2.00
2022-10-21T15:58:19.110Z,1.23
2022-10-21T16:00:47.034Z,1.10
2022-10-21T16:03:15.010Z,2.00
2022-10-21T16:05:42.984Z,1.40
2022-10-21T16:08:13.622Z,2.50
2022-10-21T16:10:47.561Z,1.60
2022-10-21T16:13:15.252Z,1.33
2022-10-21T16:15:43.283Z,1.60
2022-10-21T16:18:13.301Z,1.60
2022-10-21T16:20:42.230Z,1.80
2022-10-21T16:23:11.551Z,1.33
2022-10-21T16:25:40.643Z,1.60
2022-10-21T16:28:08.325Z,1.07
2022-10-21T16:30:39.774Z,1.77
2022-10-21T16:33:07.642Z,2.37
2022-10-21T16:35:35.394Z,2.33
2022-10-21T16:38:03.131Z,2.37
2022-10-21T16:40:33.698Z,1.57
2022-10-21T16:43:02.735Z,1.17
2022-10-21T16:45:32.482Z,1.00
2022-10-21T16:48:04.097Z,1.00
2022-10-21T16:50:39.243Z,0.90
2022-10-21T16:53:07.572Z,0.80
2022-10-21T16:55:35.657Z,1.57
2022-10-21T16:58:04.901Z,0.87
2022-10-21T17:00:32.686Z,1.00
2022-10-21T17:03:00.957Z,0.80
2022-10-21T17:05:29.012Z,0.90
2022-10-21T17:07:57.092Z,0.70
2022-10-21T17:10:24.864Z,0.80
2022-10-21T17:12:58.755Z,0.70
2022-10-21T17:15:29.218Z,0.60
2022-10-21T17:17:56.872Z,0.60
2022-10-21T17:20:24.660Z,0.80
2022-10-21T17:22:52.422Z,0.70
2022-10-21T17:25:20.164Z,0.83
2022-10-21T17:27:47.918Z,0.77
2022-10-21T17:30:15.864Z,0.77
2022-10-21T17:32:44.983Z,0.67
2022-10-21T17:35:18.669Z,0.70
2022-10-21T17:37:47.708Z,0.90
2022-10-21T17:40:17.414Z,0.80
2022-10-21T17:42:45.185Z,0.83
2022-10-21T17:45:14.031Z,0.90
2022-10-21T17:47:42.369Z,0.80
2022-10-21T17:50:12.958Z,0.80
2022-10-21T17:52:41.576Z,0.80
2022-10-21T17:55:09.827Z,0.90
2022-10-21T17:57:38.039Z,0.90
2022-10-21T18:00:06.854Z,1.20
2022-10-21T18:02:35.745Z,0.77
2022-10-21T18:05:03.642Z,1.00
2022-10-21T18:07:32.869Z,0.90
2022-10-21T18:10:00.720Z,0.97
2022-10-21T18:12:30.348Z,0.90
2022-10-21T18:14:58.165Z,0.63
2022-10-21T18:17:25.876Z,0.73
2022-10-21T18:19:53.749Z,0.83
2022-10-21T18:22:22.280Z,0.70
2022-10-21T18:24:52.680Z,0.90
2022-10-21T18:27:20.379Z,0.70
2022-10-21T18:29:48.175Z,0.97
2022-10-21T18:32:15.915Z,0.80
2022-10-21T18:34:43.924Z,1.00
2022-10-21T18:37:11.683Z,0.77
2022-10-21T18:39:39.409Z,0.97
2022-10-21T18:42:11.739Z,0.70
2022-10-21T18:44:39.485Z,0.93
2022-10-21T18:47:07.269Z,0.73
2022-10-21T18:49:37.625Z,0.90
2022-10-21T18:52:05.597Z,0.90
2022-10-21T18:54:33.353Z,0.80
2022-10-21T18:57:00.998Z,1.03
2022-10-21T18:59:30.323Z,0.80
2022-10-21T19:01:58.033Z,0.90
2022-10-21T19:04:25.769Z,1.27
2022-10-21T19:06:53.813Z,1.10
2022-10-21T19:09:25.707Z,1.00
2022-10-21T19:11:54.416Z,1.03
2022-10-21T19:14:22.344Z,1.00
2022-10-21T19:16:51.381Z,1.10
2022-10-21T19:19:19.161Z,1.07
2022-10-21T19:21:46.997Z,0.90
2022-10-21T19:24:14.852Z,0.80
2022-10-21T19:26:44.862Z,1.10
2022-10-21T19:29:16.320Z,1.20
2022-10-21T19:34:23.042Z,1.00
2022-10-21T19:36:51.202Z,1.10
2022-10-21T19:39:18.902Z,0.90
2022-10-21T19:41:46.701Z,0.87
2022-10-21T19:44:14.335Z,1.37
2022-10-21T19:46:42.463Z,0.93
2022-10-21T19:49:12.059Z,0.97
2022-10-21T19:51:41.103Z,1.20
2022-10-21T19:54:10.204Z,1.10
2022-10-21T19:56:37.947Z,1.00
2022-10-21T19:59:06.870Z,1.03
2022-10-21T20:01:35.704Z,0.93
2022-10-21T20:04:04.869Z,0.83
2022-10-21T20:06:35.023Z,0.90
2022-10-21T20:09:06.378Z,1.20
2022-10-21T20:11:34.507Z,1.20
2022-10-21T20:14:02.577Z,0.90
2022-10-21T20:16:33.844Z,1.00
2022-10-21T20:19:02.416Z,1.10
2022-10-21T20:21:32.236Z,1.23
2022-10-21T20:24:02.087Z,1.20
2022-10-21T20:26:31.308Z,1.00
2022-10-21T20:29:01.998Z,1.00
2022-10-21T20:31:30.356Z,1.00
2022-10-21T20:33:58.210Z,1.27
2022-10-21T20:36:27.777Z,1.00
2022-10-21T20:38:57.582Z,1.00
2022-10-21T20:41:27.067Z,1.30
2022-10-21T20:43:56.422Z,1.00
2022-10-21T20:46:26.399Z,1.10
2022-10-21T20:48:55.257Z,0.90
2022-10-21T20:51:25.272Z,0.90
2022-10-21T20:53:55.487Z,0.80
2022-10-21T20:56:26.397Z,1.17
2022-10-21T20:58:54.391Z,1.20
2022-10-21T21:01:26.022Z,0.67
2022-10-21T21:03:54.790Z,0.90
2022-10-21T21:06:22.992Z,0.77
2022-10-21T21:09:14.756Z,1.03
2022-10-21T21:11:38.540Z,0.87
2022-10-21T21:14:06.348Z,1.30
2022-10-21T21:16:35.353Z,0.97
2022-10-21T21:19:04.945Z,1.10
2022-10-21T21:21:34.979Z,1.30
2022-10-21T21:24:03.222Z,1.03
2022-10-21T21:26:34.210Z,0.93
2022-10-21T21:29:02.249Z,1.33
2022-10-21T21:31:30.978Z,1.00
2022-10-21T21:34:00.242Z,1.07
2022-10-21T21:36:28.438Z,1.73
2022-10-21T21:38:56.304Z,0.90
2022-10-21T21:41:25.108Z,1.13
2022-10-21T21:43:53.900Z,1.03
2022-10-21T21:46:25.644Z,1.00
2022-10-21T21:48:56.045Z,1.30
2022-10-21T21:51:28.926Z,1.40
2022-10-21T21:53:57.877Z,1.13
2022-10-21T21:56:26.390Z,1.20
2022-10-21T21:58:54.990Z,1.10
2022-10-21T22:01:25.683Z,1.37
2022-10-21T22:03:54.117Z,1.30
2022-10-21T22:06:22.893Z,1.40
2022-10-21T22:08:52.409Z,1.00
2022-10-21T22:11:22.349Z,1.10
2022-10-21T22:13:50.196Z,1.03
2022-10-21T22:16:19.788Z,1.30
2022-10-21T22:18:47.407Z,1.07
2022-10-21T22:21:17.577Z,1.33
2022-10-21T22:23:46.029Z,1.10
2022-10-21T22:26:16.649Z,1.30
2022-10-21T22:28:44.793Z,1.00
2022-10-21T22:31:14.899Z,1.20
2022-10-21T22:36:11.840Z,1.60
2022-10-21T22:38:39.517Z,1.43
2022-10-21T22:41:12.180Z,1.60
2022-10-21T22:43:42.799Z,1.10
2022-10-21T22:46:22.253Z,1.20
2022-10-21T22:48:57.343Z,1.10
2022-10-21T22:51:25.018Z,1.17
2022-10-21T22:53:55.467Z,1.30
2022-10-21T22:56:24.881Z,1.60
2022-10-21T22:58:53.863Z,1.60
2022-10-21T23:01:24.105Z,1.40
2022-10-21T23:03:52.650Z,1.37
2022-10-21T23:06:20.287Z,1.50
2022-10-21T23:08:48.045Z,1.70
2022-10-21T23:11:15.748Z,1.50
2022-10-21T23:13:56.143Z,1.60
2022-10-21T23:16:32.761Z,1.53
2022-10-21T23:19:00.479Z,1.60
2022-10-21T23:21:28.812Z,1.40
2022-10-21T23:23:56.505Z,1.53
2022-10-21T23:26:24.134Z,1.60
2022-10-21T23:28:51.756Z,1.40
2022-10-21T23:31:19.746Z,1.27
2022-10-21T23:33:48.710Z,1.33
2022-10-21T23:36:16.310Z,1.50
2022-10-21T23:38:44.027Z,1.67
2022-10-21T23:41:11.642Z,1.27
2022-10-21T23:43:39.234Z,1.53
2022-10-21T23:46:07.681Z,1.73
2022-10-21T23:48:35.371Z,2.03
2022-10-21T23:51:05.164Z,1.40
2022-10-21T23:53:32.917Z,1.70
2022-10-21T23:56:01.068Z,2.07
2022-10-21T23:58:28.699Z,1.60
